Time;durP1;ratioP1;P1;durP2;ratioP2;P2;SDS_P1;SDS_P2;PMS_P1;PMS_P2;Temp;Humidity;BMP_temperature;BMP_pressure;BME280_temperature;BME280_humidity;BME280_pressure;Samples;Min_cycle;Max_cycle;Signal;HPM_P1;HPM_P2
2022/09/23 00:01:27;;;;;;;17.42;10.52;;;;;;;9.83;70.24;99004.56;5016075;28;20078;-72
2022/09/23 00:03:53;;;;;;;15.20;9.90;;;;;;;9.83;69.79;98998.22;5010499;28;20029;-72
2022/09/23 00:06:23;;;;;;;15.25;10.10;;;;;;;9.78;69.86;98999.09;5009019;28;20034;-72
2022/09/23 00:08:49;;;;;;;16.77;10.13;;;;;;;9.76;70.35;99000.47;5013144;28;20033;-72
2022/09/23 00:11:18;;;;;;;14.35;9.50;;;;;;;9.74;69.57;98995.25;5014919;28;20072;-71
2022/09/23 00:13:45;;;;;;;19.40;10.40;;;;;;;9.72;70.27;99010.34;5015851;28;20073;-71
2022/09/23 00:16:14;;;;;;;15.80;9.93;;;;;;;9.71;70.75;98995.00;5013184;28;20105;-71
2022/09/23 00:18:40;;;;;;;17.27;10.45;;;;;;;9.70;70.27;98999.63;5014063;28;20033;-71
2022/09/23 00:21:08;;;;;;;15.10;9.90;;;;;;;9.65;70.21;98991.44;5014298;28;20563;-72
2022/09/23 00:23:35;;;;;;;16.40;10.60;;;;;;;9.61;70.10;98998.56;5010761;28;20026;-72
2022/09/23 00:26:02;;;;;;;15.10;10.48;;;;;;;9.58;70.28;98988.19;5011046;28;20034;-71
2022/09/23 00:28:28;;;;;;;17.05;10.38;;;;;;;9.53;70.54;98992.56;5012846;28;20510;-71
2022/09/23 00:30:54;;;;;;;15.18;9.65;;;;;;;9.53;70.20;98994.47;5012713;28;20072;-71
2022/09/23 00:33:19;;;;;;;17.15;10.60;;;;;;;9.51;70.27;98997.50;5012681;28;20782;-71
2022/09/23 00:35:46;;;;;;;15.60;10.02;;;;;;;9.47;70.78;98984.63;5012386;28;20029;-72
2022/09/23 00:38:13;;;;;;;17.80;10.57;;;;;;;9.43;70.36;98986.25;5012789;28;20083;-71
2022/09/23 00:40:44;;;;;;;17.27;12.15;;;;;;;9.43;70.97;98986.25;5011204;28;20485;-71
2022/09/23 00:43:12;;;;;;;16.02;10.32;;;;;;;9.44;70.18;98982.44;5012257;28;20030;-72
2022/09/23 00:45:38;;;;;;;16.98;10.50;;;;;;;9.43;70.96;98978.88;5014192;28;20026;-71
2022/09/23 00:48:05;;;;;;;16.38;11.20;;;;;;;9.43;70.66;98975.31;5029870;28;20025;-71
2022/09/23 00:50:36;;;;;;;15.55;10.95;;;;;;;9.41;70.70;98970.13;5015680;28;20029;-71
2022/09/23 00:53:06;;;;;;;19.52;11.73;;;;;;;9.37;71.07;98967.09;5008322;28;20030;-71
2022/09/23 00:56:00;;;;;;;16.13;11.00;;;;;;;9.32;70.96;98964.41;5015794;28;20034;-71
2022/09/23 00:58:30;;;;;;;16.45;10.93;;;;;;;9.34;70.71;98972.31;5011151;28;20038;-71
2022/09/23 01:00:58;;;;;;;15.48;10.05;;;;;;;9.32;70.59;98974.50;5011584;28;20441;-71
2022/09/23 01:03:24;;;;;;;14.93;9.40;;;;;;;9.31;70.42;98978.34;5011788;28;20037;-71
2022/09/23 01:05:50;;;;;;;13.07;8.63;;;;;;;9.23;70.68;98977.00;5011563;28;20502;-71
2022/09/23 01:08:16;;;;;;;15.35;9.55;;;;;;;9.18;70.31;98974.25;5012272;28;20368;-71
2022/09/23 01:10:57;;;;;;;13.45;8.60;;;;;;;9.11;70.81;98973.69;5010694;28;20077;-71
2022/09/23 01:13:40;;;;;;;15.25;9.15;;;;;;;9.09;70.80;98969.31;5011939;28;20113;-71
2022/09/23 01:16:42;;;;;;;12.98;9.05;;;;;;;9.03;70.94;98967.66;5011837;28;20033;-70
2022/09/23 01:19:35;;;;;;;13.63;8.52;;;;;;;9.02;70.88;98968.75;5010873;28;20073;-71
2022/09/23 01:22:07;;;;;;;14.15;8.70;;;;;;;9.02;70.99;98966.03;5011623;28;20104;-71
2022/09/23 01:24:45;;;;;;;16.25;8.48;;;;;;;9.01;70.60;98969.06;5012004;28;20033;-71
2022/09/23 01:27:32;;;;;;;14.82;9.27;;;;;;;8.96;70.91;98958.09;5011982;28;20104;-70
2022/09/23 01:30:19;;;;;;;13.48;8.18;;;;;;;8.93;71.19;98962.22;5010489;28;20042;-71
2022/09/23 01:33:09;;;;;;;14.75;8.80;;;;;;;8.92;71.15;98968.78;5010029;28;20029;-71
2022/09/23 01:35:49;;;;;;;16.95;9.30;;;;;;;8.93;71.23;98962.22;5020712;28;20024;-71
2022/09/23 01:38:33;;;;;;;15.07;9.13;;;;;;;8.93;71.20;98954.81;5031578;28;20025;-71
2022/09/23 01:41:12;;;;;;;16.17;9.70;;;;;;;8.93;71.46;98957.56;5031474;28;20091;-71
2022/09/23 01:43:52;;;;;;;17.17;10.07;;;;;;;8.91;71.37;98957.00;5030663;28;20026;-71
2022/09/23 01:46:29;;;;;;;13.73;8.88;;;;;;;8.91;71.32;98954.28;5026487;28;20030;-71
2022/09/23 01:48:58;;;;;;;18.58;9.98;;;;;;;8.93;71.21;98959.50;5032094;28;20036;-71
2022/09/23 01:51:38;;;;;;;15.30;8.63;;;;;;;8.91;71.03;98954.28;5027229;28;20107;-71
2022/09/23 01:54:16;;;;;;;14.02;9.27;;;;;;;8.92;71.11;98953.19;5029580;28;20029;-71
2022/09/23 01:56:50;;;;;;;17.05;9.40;;;;;;;8.94;71.57;98961.94;5032111;28;20045;-71
2022/09/23 01:59:20;;;;;;;14.65;8.90;;;;;;;8.95;71.39;98960.03;5020882;28;20501;-71
2022/09/23 02:02:08;;;;;;;13.45;8.00;;;;;;;8.94;71.61;98955.66;5012504;28;20053;-71
2022/09/23 02:04:44;;;;;;;13.77;8.90;;;;;;;8.96;71.65;98944.44;5031476;28;20029;-71
2022/09/23 02:07:24;;;;;;;13.80;8.30;;;;;;;8.93;71.53;98941.16;5026664;28;20025;-71
2022/09/23 02:10:04;;;;;;;12.38;8.23;;;;;;;8.94;71.27;98948.25;5029982;28;20057;-71
2022/09/23 02:12:34;;;;;;;12.32;8.35;;;;;;;8.97;71.60;98946.06;5017081;28;20116;-71
2022/09/23 02:15:10;;;;;;;13.88;8.77;;;;;;;8.98;71.51;98940.31;5011313;28;20037;-70
2022/09/23 02:17:53;;;;;;;13.07;8.45;;;;;;;9.00;71.79;98940.06;5011340;28;20041;-71
2022/09/23 02:20:29;;;;;;;15.23;8.25;;;;;;;9.00;71.57;98943.59;5012036;28;20160;-71
2022/09/23 02:22:55;;;;;;;15.45;8.23;;;;;;;9.01;71.38;98944.44;5011223;28;20502;-71
2022/09/23 02:25:27;;;;;;;14.10;7.95;;;;;;;8.99;71.50;98939.22;5030203;28;20045;-71
2022/09/23 02:28:05;;;;;;;13.45;8.27;;;;;;;9.00;71.89;98943.59;5031490;28;20477;-71
2022/09/23 02:30:41;;;;;;;12.00;8.20;;;;;;;9.01;71.60;98944.44;5030340;28;20489;-71
2022/09/23 02:33:21;;;;;;;16.73;8.63;;;;;;;9.01;71.05;98939.75;5027465;28;20021;-71
2022/09/23 02:36:00;;;;;;;14.48;8.32;;;;;;;9.02;71.48;98943.34;5011624;28;20053;-71
2022/09/23 02:38:37;;;;;;;13.60;7.80;;;;;;;9.04;71.93;98941.16;5011189;28;20034;-71
2022/09/23 02:41:20;;;;;;;13.85;8.38;;;;;;;9.06;72.10;98938.97;5011800;28;20065;-71
2022/09/23 02:43:53;;;;;;;14.18;8.25;;;;;;;9.06;71.73;98936.22;5010170;28;20030;-72
2022/09/23 02:46:20;;;;;;;11.95;6.97;;;;;;;9.05;71.18;98943.59;5018219;28;20661;-71
2022/09/23 02:49:03;;;;;;;15.30;7.93;;;;;;;9.04;71.52;98933.75;5030946;28;20490;-71
2022/09/23 02:51:30;;;;;;;14.63;8.02;;;;;;;9.06;71.26;98933.50;5011001;28;20026;-71
2022/09/23 02:53:57;;;;;;;11.27;7.80;;;;;;;9.06;71.77;98937.03;5008936;28;20018;-71
2022/09/23 02:56:23;;;;;;;15.55;8.55;;;;;;;9.07;71.85;98940.59;5010904;28;20045;-71
2022/09/23 02:58:51;;;;;;;14.70;8.05;;;;;;;9.05;71.40;98951.00;5010710;28;20552;-71
2022/09/23 03:01:41;;;;;;;12.80;7.85;;;;;;;9.06;71.38;98944.44;5010878;28;20054;-71
2022/09/23 03:04:16;;;;;;;11.70;7.55;;;;;;;9.04;71.47;98949.34;5010786;28;20030;-70
2022/09/23 03:07:09;;;;;;;13.57;7.22;;;;;;;9.01;71.71;98947.97;5009090;28;20038;-71
2022/09/23 03:09:40;;;;;;;12.45;7.60;;;;;;;9.04;71.57;98935.69;5016905;28;20053;-71
2022/09/23 03:12:25;;;;;;;13.55;8.27;;;;;;;9.02;71.60;98949.63;5029538;28;20113;-70
2022/09/23 03:15:00;;;;;;;14.38;9.30;;;;;;;9.05;71.50;98951.00;5008876;28;20080;-70
2022/09/23 03:17:43;;;;;;;15.55;9.63;;;;;;;9.08;71.00;98944.97;5009000;28;20466;-71
2022/09/23 03:20:14;;;;;;;16.38;9.00;;;;;;;9.08;71.94;98948.53;5010698;28;20029;-71
2022/09/23 03:22:45;;;;;;;14.45;8.63;;;;;;;9.09;71.19;98944.69;5016795;28;21266;-70
2022/09/23 03:25:15;;;;;;;16.65;9.73;;;;;;;9.08;71.37;98945.78;5033577;28;20030;-70
2022/09/23 03:27:42;;;;;;;20.38;10.50;;;;;;;9.08;71.47;98945.78;5034159;28;20045;-70
2022/09/23 03:30:08;;;;;;;17.63;10.52;;;;;;;9.09;71.44;98952.09;5024038;28;20296;-70
2022/09/23 03:32:36;;;;;;;18.35;10.35;;;;;;;9.07;71.84;98941.41;5014197;28;20037;-70
2022/09/23 03:35:04;;;;;;;17.73;10.57;;;;;;;9.06;71.36;98941.69;5014470;28;20026;-70
2022/09/23 03:37:46;;;;;;;17.83;9.65;;;;;;;9.03;71.52;98937.56;5014318;28;20038;-70
2022/09/23 03:40:16;;;;;;;17.17;9.93;;;;;;;9.04;71.92;98944.69;5015017;28;20167;-71
2022/09/23 03:42:41;;;;;;;17.15;10.35;;;;;;;9.06;71.98;98942.50;5012873;28;20609;-70
2022/09/23 03:45:12;;;;;;;16.45;8.98;;;;;;;9.04;71.58;98933.75;5014407;28;20102;-71
2022/09/23 03:47:38;;;;;;;18.17;10.25;;;;;;;9.02;71.33;98937.88;5026328;28;20112;-71
2022/09/23 03:50:04;;;;;;;17.33;9.48;;;;;;;8.99;71.35;98936.47;5024296;28;20029;-71
2022/09/23 03:52:30;;;;;;;13.45;8.38;;;;;;;8.99;71.99;98935.66;5013736;28;20030;-71
2022/09/23 03:54:56;;;;;;;15.93;8.63;;;;;;;9.00;72.17;98942.78;5018455;28;20030;-71
2022/09/23 03:57:22;;;;;;;13.90;8.77;;;;;;;9.00;71.48;98932.66;5017283;28;20052;-71
2022/09/23 03:59:49;;;;;;;13.20;9.25;;;;;;;9.00;71.94;98929.91;5013688;28;20034;-71
2022/09/23 04:02:15;;;;;;;16.65;8.98;;;;;;;8.99;71.78;98933.75;5013811;28;20032;-71
2022/09/23 04:04:42;;;;;;;14.88;8.88;;;;;;;8.98;71.80;98932.09;5014144;28;20073;-71
2022/09/23 04:07:08;;;;;;;12.75;7.93;;;;;;;8.97;71.74;98938.66;5013912;28;20029;-71
2022/09/23 04:09:34;;;;;;;15.00;8.93;;;;;;;8.98;71.83;98934.84;5013859;28;20209;-71
2022/09/23 04:12:00;;;;;;;17.08;8.27;;;;;;;8.98;71.85;98936.78;5030186;28;20035;-71
2022/09/23 04:14:25;;;;;;;15.77;8.65;;;;;;;8.98;71.59;98936.78;5033500;28;20471;-71
2022/09/23 04:16:51;;;;;;;16.23;9.40;;;;;;;8.96;71.62;98939.78;5033012;28;20052;-71
2022/09/23 04:19:19;;;;;;;13.25;9.38;;;;;;;8.93;71.74;98932.94;5033619;28;20526;-71
2022/09/23 04:21:44;;;;;;;15.30;9.32;;;;;;;8.92;71.66;98936.75;5032968;28;20131;-71
2022/09/23 04:24:10;;;;;;;17.13;9.77;;;;;;;8.91;71.97;98935.13;5032965;28;20033;-71
2022/09/23 04:26:37;;;;;;;17.85;9.30;;;;;;;8.91;71.92;98942.53;5033415;28;20036;-71
2022/09/23 04:29:05;;;;;;;16.00;9.23;;;;;;;8.89;71.95;98936.50;5033204;28;20032;-71
2022/09/23 04:31:32;;;;;;;15.05;8.73;;;;;;;8.87;71.67;98941.44;5028097;28;20036;-71
2022/09/23 04:33:58;;;;;;;15.63;9.00;;;;;;;8.86;71.51;98939.78;5015295;28;20042;-71
2022/09/23 04:36:23;;;;;;;13.43;8.20;;;;;;;8.86;71.88;98945.25;5012238;28;20026;-71
2022/09/23 04:38:50;;;;;;;15.63;8.68;;;;;;;8.87;71.95;98931.28;5018236;28;20402;-71
2022/09/23 04:41:16;;;;;;;14.23;8.48;;;;;;;8.88;71.62;98934.88;5031109;28;20025;-71
2022/09/23 04:43:42;;;;;;;12.27;8.23;;;;;;;8.88;71.81;98930.19;5011915;28;20382;-71
2022/09/23 04:46:10;;;;;;;11.77;7.45;;;;;;;8.86;71.74;98932.38;5017287;28;20029;-71
2022/09/23 04:48:37;;;;;;;13.90;7.85;;;;;;;8.86;71.59;98935.13;5032946;28;20047;-71
2022/09/23 04:51:07;;;;;;;12.77;8.27;;;;;;;8.86;71.87;98943.31;5033104;28;20021;-70
2022/09/23 04:53:34;;;;;;;17.42;9.77;;;;;;;8.85;72.16;98941.69;5031236;28;20112;-70
2022/09/23 04:56:25;;;;;;;12.35;8.80;;;;;;;8.84;71.56;98939.22;5032721;28;20508;-71
2022/09/23 04:58:51;;;;;;;17.33;10.07;;;;;;;8.85;72.26;98938.94;5025350;28;20064;-71
2022/09/23 05:01:24;;;;;;;11.43;7.68;;;;;;;8.87;72.16;98936.75;5032808;28;20028;-71
2022/09/23 05:03:51;;;;;;;11.43;7.35;;;;;;;8.88;72.00;98934.88;5031856;28;20096;-71
2022/09/23 05:06:16;;;;;;;11.00;7.30;;;;;;;8.90;72.25;98938.16;5032716;28;20436;-72
2022/09/23 05:08:50;;;;;;;13.80;7.45;;;;;;;8.92;71.93;98934.03;5031527;28;20029;-72
2022/09/23 05:11:17;;;;;;;10.80;7.00;;;;;;;8.94;71.84;98947.44;5032652;28;20037;-71
2022/09/23 05:13:43;;;;;;;8.63;6.15;;;;;;;8.94;72.22;98944.72;5012895;28;20021;-71
2022/09/23 05:16:11;;;;;;;9.52;6.38;;;;;;;8.93;71.82;98946.63;5008404;28;20065;-72
2022/09/23 05:18:41;;;;;;;10.35;7.00;;;;;;;8.92;71.62;98950.44;5031656;28;20113;-72
2022/09/23 05:21:09;;;;;;;11.82;7.80;;;;;;;8.92;71.85;98955.91;5021761;28;20033;-71
2022/09/23 05:23:34;;;;;;;12.52;7.28;;;;;;;8.92;71.72;98955.91;5011092;28;20522;-72
2022/09/23 05:26:03;;;;;;;12.48;7.55;;;;;;;8.91;71.82;98957.00;5011390;28;20080;-72
2022/09/23 05:28:31;;;;;;;10.52;6.55;;;;;;;8.91;72.17;98961.66;5007839;28;20027;-70
2022/09/23 05:31:06;;;;;;;10.60;6.63;;;;;;;8.87;71.71;98953.16;5011121;28;20042;-71
2022/09/23 05:33:33;;;;;;;10.05;6.65;;;;;;;8.87;72.05;98955.09;5007374;28;20545;-72
2022/09/23 05:35:59;;;;;;;13.35;6.75;;;;;;;8.85;72.00;98949.88;5011932;28;20038;-73
2022/09/23 05:38:26;;;;;;;11.75;6.80;;;;;;;8.87;72.04;98958.63;5010767;28;20101;-72
2022/09/23 05:40:59;;;;;;;9.77;6.90;;;;;;;8.85;71.75;98960.03;5011007;28;20029;-72
2022/09/23 05:43:25;;;;;;;12.43;6.78;;;;;;;8.81;71.60;98962.47;5011030;28;20580;-71
2022/09/23 05:45:51;;;;;;;12.05;6.75;;;;;;;8.78;71.40;98963.00;5008267;28;20053;-71
2022/09/23 05:48:17;;;;;;;11.27;7.07;;;;;;;8.77;71.62;98961.38;5008747;28;20093;-71
2022/09/23 05:50:51;;;;;;;9.80;6.38;;;;;;;8.73;71.21;98960.28;5008591;28;20030;-71
2022/09/23 05:53:17;;;;;;;12.25;7.07;;;;;;;8.70;71.88;98961.63;5010005;28;20022;-74
2022/09/23 05:55:44;;;;;;;10.57;7.25;;;;;;;8.68;72.03;98965.75;5010619;28;20022;-71
2022/09/23 05:58:10;;;;;;;13.38;8.40;;;;;;;8.62;71.84;98965.75;5010382;28;20072;-71
2022/09/23 06:00:38;;;;;;;15.48;8.88;;;;;;;8.57;71.65;98967.63;5007714;28;20356;-72
2022/09/23 06:03:05;;;;;;;13.50;8.57;;;;;;;8.57;71.54;98968.47;5008777;28;20076;-72
2022/09/23 06:05:30;;;;;;;12.48;9.05;;;;;;;8.58;71.67;98972.00;5009916;28;20113;-71
2022/09/23 06:07:56;;;;;;;48.55;25.48;;;;;;;8.57;71.46;98973.94;5010376;28;20100;-71
2022/09/23 06:10:21;;;;;;;11.65;7.60;;;;;;;8.57;71.56;98973.09;5010151;28;20489;-72
2022/09/23 06:12:47;;;;;;;13.52;7.18;;;;;;;8.56;72.16;98972.28;5010140;28;20441;-72
2022/09/23 06:15:12;;;;;;;11.35;7.13;;;;;;;8.57;71.91;98973.94;5009773;28;20018;-71
2022/09/23 06:17:38;;;;;;;11.32;6.30;;;;;;;8.59;72.08;98982.69;5000833;28;20079;-70
2022/09/23 06:20:03;;;;;;;9.88;6.13;;;;;;;8.59;71.49;98979.94;5006205;28;20083;-70
2022/09/23 06:22:28;;;;;;;9.98;6.28;;;;;;;8.60;72.35;98975.28;5008087;28;20144;-71
2022/09/23 06:24:54;;;;;;;9.15;6.18;;;;;;;8.60;72.21;98981.59;5014349;28;20029;-70
2022/09/23 06:27:19;;;;;;;10.55;6.03;;;;;;;8.62;72.02;98981.31;5005447;28;20068;-70
2022/09/23 06:29:44;;;;;;;11.57;6.70;;;;;;;8.67;72.54;98977.78;5007423;28;20036;-73
2022/09/23 06:32:10;;;;;;;13.00;6.88;;;;;;;8.70;72.24;98978.03;5016489;28;20539;-70
2022/09/23 06:34:35;;;;;;;10.90;7.25;;;;;;;8.73;72.24;98976.69;5012629;28;20426;-70
2022/09/23 06:37:00;;;;;;;12.95;7.50;;;;;;;8.76;72.39;98976.97;5005740;28;20041;-70
2022/09/23 06:39:26;;;;;;;13.00;7.32;;;;;;;8.79;72.74;98978.31;5008741;28;20083;-69
2022/09/23 06:41:51;;;;;;;10.75;7.22;;;;;;;8.82;72.21;98979.72;5009000;28;20018;-72
2022/09/23 06:44:17;;;;;;;12.73;7.65;;;;;;;8.85;72.21;98974.50;5014167;28;20060;-72
2022/09/23 06:46:43;;;;;;;11.43;7.78;;;;;;;8.88;73.06;98976.69;5018238;28;20033;-72
2022/09/23 06:49:11;;;;;;;11.95;7.18;;;;;;;8.98;72.61;98981.34;5014587;28;20030;-70
2022/09/23 06:51:37;;;;;;;11.95;8.00;;;;;;;9.06;73.26;98982.75;5010987;28;20057;-70
2022/09/23 06:54:02;;;;;;;12.13;8.15;;;;;;;9.11;72.54;98990.94;5017706;28;20061;-70
2022/09/23 06:56:28;;;;;;;14.05;7.97;;;;;;;9.16;72.71;98981.91;5028329;28;20079;-70
2022/09/23 06:58:53;;;;;;;11.60;8.02;;;;;;;9.20;72.88;98986.56;5025432;28;20041;-70
2022/09/23 07:01:19;;;;;;;12.43;7.50;;;;;;;9.27;72.37;98978.09;5021576;28;20112;-71
2022/09/23 07:03:46;;;;;;;16.90;9.00;;;;;;;9.32;72.55;98989.03;5006223;28;20034;-71
2022/09/23 07:06:11;;;;;;;12.50;8.82;;;;;;;9.34;72.25;98986.00;5008260;28;20092;-71
2022/09/23 07:08:37;;;;;;;14.88;9.60;;;;;;;9.36;73.16;98984.66;5005571;28;20104;-71
2022/09/23 07:11:05;;;;;;;13.52;8.80;;;;;;;9.40;72.52;98984.91;5007337;28;20046;-70
2022/09/23 07:13:32;;;;;;;13.00;9.48;;;;;;;9.44;72.67;98979.69;5007222;28;20116;-71
2022/09/23 07:15:59;;;;;;;16.73;10.40;;;;;;;9.49;72.74;98982.44;5020791;28;20030;-71
2022/09/23 07:18:26;;;;;;;13.13;9.05;;;;;;;9.56;72.32;98987.63;5029297;28;20053;-71
2022/09/23 07:20:52;;;;;;;14.40;9.13;;;;;;;9.61;72.78;98985.69;5012995;28;20036;-72
2022/09/23 07:23:19;;;;;;;13.05;8.82;;;;;;;9.65;72.75;98986.78;5006087;28;20050;-71
2022/09/23 07:25:45;;;;;;;15.07;10.50;;;;;;;9.69;72.74;98987.03;5009146;28;20068;-72
2022/09/23 07:28:11;;;;;;;15.25;9.60;;;;;;;9.75;72.58;98983.19;5010484;28;20493;-71
2022/09/23 07:30:40;;;;;;;12.95;8.40;;;;;;;9.86;73.09;98985.91;5026805;28;20033;-71
2022/09/23 07:33:06;;;;;;;12.40;8.70;;;;;;;9.91;73.17;98980.44;5010040;28;20077;-72
2022/09/23 07:35:32;;;;;;;13.10;8.95;;;;;;;9.95;72.61;98987.00;5006488;28;20026;-70
2022/09/23 07:37:58;;;;;;;14.50;11.00;;;;;;;9.98;72.84;98986.44;5007011;28;20025;-72
2022/09/23 07:40:24;;;;;;;13.90;8.77;;;;;;;10.04;72.38;98982.56;5007675;28;20379;-71
2022/09/23 07:42:49;;;;;;;14.10;8.65;;;;;;;10.10;72.75;98981.44;5007299;28;20037;-71
2022/09/23 07:45:15;;;;;;;13.55;8.95;;;;;;;10.18;72.39;98977.31;5008806;28;20034;-72
2022/09/23 07:47:40;;;;;;;14.35;8.65;;;;;;;10.26;73.10;98982.19;5018567;28;20087;-72
2022/09/23 07:50:09;;;;;;;11.43;8.57;;;;;;;10.32;72.68;98980.25;5014925;28;20036;-71
2022/09/23 07:52:36;;;;;;;15.27;8.93;;;;;;;10.40;72.06;98979.69;5006613;28;20109;-72
2022/09/23 07:55:05;;;;;;;14.57;9.27;;;;;;;10.49;72.96;98982.66;5008426;28;20022;-72
2022/09/23 07:57:31;;;;;;;12.70;8.73;;;;;;;10.60;72.79;98977.94;5010905;28;20033;-72
2022/09/23 07:59:57;;;;;;;14.63;8.38;;;;;;;10.68;72.26;98980.09;5014838;28;20085;-72
2022/09/23 08:02:23;;;;;;;13.77;8.05;;;;;;;10.73;72.89;98990.19;5008263;28;20091;-72
2022/09/23 08:04:49;;;;;;;14.77;8.38;;;;;;;10.80;72.59;98987.16;5010274;28;20034;-72
2022/09/23 08:07:15;;;;;;;11.18;7.55;;;;;;;10.87;72.54;98979.41;5009641;28;20462;-72
2022/09/23 08:09:42;;;;;;;11.10;7.40;;;;;;;10.91;72.32;98991.44;5009363;28;20494;-72
2022/09/23 08:12:10;;;;;;;10.68;6.82;;;;;;;10.99;72.42;98987.28;5011882;28;20038;-72
2022/09/23 08:14:35;;;;;;;9.48;6.60;;;;;;;11.06;72.59;98992.44;5012651;28;20026;-73
2022/09/23 08:17:01;;;;;;;8.95;6.70;;;;;;;11.13;72.22;98991.00;5027608;28;20545;-71
2022/09/23 08:19:26;;;;;;;11.52;7.18;;;;;;;11.20;71.84;98990.69;5015874;28;20161;-71
2022/09/23 08:21:53;;;;;;;12.00;6.82;;;;;;;11.26;72.24;98991.47;5008119;28;20479;-72
2022/09/23 08:24:22;;;;;;;12.00;7.13;;;;;;;11.30;71.67;98985.09;5011571;28;20030;-72
2022/09/23 08:26:49;;;;;;;10.75;6.85;;;;;;;11.39;72.02;98977.06;5012396;28;20102;-71
2022/09/23 08:29:16;;;;;;;11.48;7.30;;;;;;;11.46;71.99;98982.22;5022283;28;20501;-72
2022/09/23 08:31:42;;;;;;;11.38;7.15;;;;;;;11.57;72.25;98975.53;5028464;28;20029;-72
2022/09/23 08:34:08;;;;;;;10.27;6.60;;;;;;;11.69;71.92;98972.38;5021923;28;20041;-72
2022/09/23 08:36:34;;;;;;;21.02;8.73;;;;;;;11.81;71.64;98971.16;5031369;28;20032;-72
2022/09/23 08:39:00;;;;;;;11.35;6.90;;;;;;;11.90;71.66;98969.38;5032306;28;20029;-73
2022/09/23 08:41:38;;;;;;;10.10;5.72;;;;;;;11.99;71.41;98975.91;5031914;28;20375;-72
2022/09/23 08:44:13;;;;;;;9.13;6.35;;;;;;;12.05;71.08;98971.16;5020406;28;20029;-71
2022/09/23 08:46:51;;;;;;;9.82;6.32;;;;;;;12.10;71.09;98968.34;5002080;28;20114;-72
2022/09/23 08:49:27;;;;;;;8.20;5.50;;;;;;;12.17;71.14;98962.53;5011627;28;20042;-72
2022/09/23 08:51:54;;;;;;;8.70;5.85;;;;;;;12.18;70.84;98967.72;5013263;28;20486;-72
2022/09/23 08:54:20;;;;;;;8.60;5.90;;;;;;;12.23;70.64;98966.81;5013198;28;20057;-72
2022/09/23 08:56:51;;;;;;;6.43;5.18;;;;;;;12.31;70.00;98965.38;5013140;28;20475;-72
2022/09/23 08:59:39;;;;;;;6.57;5.07;;;;;;;12.39;70.48;98969.38;5025359;28;20473;-72
2022/09/23 09:02:14;;;;;;;7.33;4.97;;;;;;;12.46;70.43;98967.09;5032751;28;20048;-72
2022/09/23 09:04:43;;;;;;;10.55;6.45;;;;;;;12.53;69.97;98962.03;5033049;28;20520;-72
2022/09/23 09:07:08;;;;;;;9.27;5.97;;;;;;;12.62;70.06;98954.75;5033299;28;20025;-72
2022/09/23 09:09:42;;;;;;;8.68;5.10;;;;;;;12.72;69.68;98955.69;5032569;28;20514;-72
2022/09/23 09:12:36;;;;;;;8.55;5.50;;;;;;;12.83;69.87;98961.88;5032088;28;20112;-72
2022/09/23 09:15:09;;;;;;;7.22;4.05;;;;;;;12.96;69.61;98966.63;5032504;28;20078;-72
2022/09/23 09:17:50;;;;;;;7.95;4.45;;;;;;;13.09;69.75;98956.75;5032540;28;20049;-72
2022/09/23 09:20:28;;;;;;;6.85;4.20;;;;;;;13.20;69.09;98960.19;5032669;28;20068;-72
2022/09/23 09:22:58;;;;;;;7.18;3.95;;;;;;;13.23;68.70;98959.59;5030116;28;20141;-72
2022/09/23 09:25:53;;;;;;;5.10;4.05;;;;;;;13.22;68.38;98952.44;5013056;28;20022;-72
2022/09/23 09:28:23;;;;;;;8.30;5.40;;;;;;;13.27;68.24;98951.53;5016923;28;20033;-72
2022/09/23 09:30:55;;;;;;;7.13;4.50;;;;;;;13.28;67.96;98950.41;5032694;28;20494;-72
2022/09/23 09:33:28;;;;;;;6.97;4.05;;;;;;;13.23;68.11;98946.63;5032211;28;20035;-72
2022/09/23 09:36:13;;;;;;;6.82;3.75;;;;;;;13.21;67.66;98946.09;5032529;28;20030;-71
2022/09/23 09:38:39;;;;;;;6.82;4.43;;;;;;;13.18;67.47;98948.66;5032388;28;20029;-72
2022/09/23 09:41:13;;;;;;;4.10;2.42;;;;;;;13.20;67.38;98947.22;5026605;28;20029;-72
2022/09/23 09:43:52;;;;;;;4.15;2.47;;;;;;;13.23;67.31;98932.03;5011566;28;20076;-72
2022/09/23 09:46:23;;;;;;;5.78;3.10;;;;;;;13.29;67.09;98932.75;5019484;28;20382;-72
2022/09/23 09:48:58;;;;;;;4.22;2.28;;;;;;;13.35;66.90;98920.53;5031805;28;20025;-72
2022/09/23 09:51:26;;;;;;;2.28;1.42;;;;;;;13.40;66.50;98912.19;5032370;28;20052;-72
2022/09/23 09:53:53;;;;;;;3.22;2.00;;;;;;;13.46;66.12;98910.97;5030902;28;20112;-73
2022/09/23 09:56:31;;;;;;;3.97;2.05;;;;;;;13.57;66.35;98910.78;5032072;28;20033;-72
2022/09/23 09:59:11;;;;;;;4.10;2.30;;;;;;;13.67;65.75;98908.63;5031978;28;20025;-73
2022/09/23 10:01:36;;;;;;;;;;;;;;;13.76;65.87;98911.53;5032068;28;20541;-72
2022/09/23 10:04:18;;;;;;;4.85;2.50;;;;;;;13.87;65.53;98901.09;5031344;28;20007;-72
2022/09/23 10:07:04;;;;;;;3.08;2.10;;;;;;;13.97;65.88;98900.88;5031781;28;20026;-73
2022/09/23 10:09:34;;;;;;;3.42;2.05;;;;;;;14.07;64.04;98896.25;5031631;28;20093;-72
2022/09/23 10:12:23;;;;;;;4.38;2.22;;;;;;;14.08;64.14;98895.13;5031374;28;20091;-73
2022/09/23 10:14:51;;;;;;;5.07;2.50;;;;;;;14.11;63.92;98892.59;5030372;28;20056;-72
2022/09/23 10:17:30;;;;;;;3.13;2.17;;;;;;;14.11;63.75;98897.28;5031690;28;20040;-72
2022/09/23 10:19:59;;;;;;;3.20;2.38;;;;;;;14.12;63.70;98896.97;5031405;28;20105;-73
2022/09/23 10:22:30;;;;;;;3.95;2.30;;;;;;;14.14;62.50;98894.75;5025962;28;20033;-73
2022/09/23 10:25:00;;;;;;;3.80;2.42;;;;;;;14.10;62.64;98896.47;5031288;28;20099;-72
2022/09/23 10:27:30;;;;;;;5.03;2.80;;;;;;;14.09;62.63;98896.78;5031470;28;20405;-73
2022/09/23 10:29:58;;;;;;;3.50;2.20;;;;;;;14.08;62.80;98898.72;5031320;28;20394;-72
2022/09/23 10:32:31;;;;;;;3.35;2.10;;;;;;;14.05;61.74;98891.06;5030684;28;20028;-73
2022/09/23 10:35:05;;;;;;;5.10;2.88;;;;;;;13.94;61.75;98884.97;5031051;28;20030;-72
2022/09/23 10:37:32;;;;;;;4.65;2.88;;;;;;;13.89;61.99;98887.81;5031202;28;20060;-72
2022/09/23 10:48:44;;;;;;;8.32;4.05;;;;;;;13.67;62.30;98900.38;5011798;28;20045;-72
2022/09/23 10:51:24;;;;;;;6.07;3.83;;;;;;;13.72;62.63;98896.72;5011503;28;20030;-73
2022/09/23 10:54:34;;;;;;;9.38;5.05;;;;;;;13.82;62.98;98892.94;5010310;28;20034;-72
2022/09/23 10:57:42;;;;;;;4.45;2.28;;;;;;;13.98;62.37;98885.16;5009441;28;20042;-72
2022/09/23 11:00:07;;;;;;;4.78;2.47;;;;;;;14.08;62.27;98881.34;5013748;28;20075;-72
2022/09/23 11:02:57;;;;;;;3.38;2.10;;;;;;;14.21;62.57;98877.75;5011019;28;20034;-72
2022/09/23 11:05:41;;;;;;;4.32;1.80;;;;;;;14.37;62.56;98871.91;5006237;28;20037;-72
2022/09/23 11:08:27;;;;;;;2.47;1.33;;;;;;;14.53;62.49;98873.16;5011002;28;20057;-73
2022/09/23 11:10:59;;;;;;;2.70;1.75;;;;;;;14.70;62.50;98866.97;5012140;28;20776;-74
2022/09/23 11:13:51;;;;;;;2.28;1.50;;;;;;;14.88;61.61;98878.16;5021554;28;20104;-72
2022/09/23 11:16:37;;;;;;;3.13;2.10;;;;;;;14.89;60.09;98869.53;5013558;28;20033;-72
2022/09/23 11:19:44;;;;;;;3.13;2.20;;;;;;;14.87;60.31;98866.31;5008886;28;20025;-74
2022/09/23 11:22:36;;;;;;;3.38;2.00;;;;;;;14.83;60.60;98859.78;5011704;28;20775;-73
2022/09/23 11:25:53;;;;;;;3.25;1.90;;;;;;;14.81;60.21;98866.72;5006232;28;20030;-73
2022/09/23 11:29:02;;;;;;;4.07;2.50;;;;;;;14.74;60.29;98873.50;4991035;28;20046;-72
2022/09/23 11:31:40;;;;;;;;;;;;;;;14.69;59.90;98868.09;4962440;28;20054;-72
2022/09/23 11:34:29;;;;;;;3.53;2.05;;;;;;;14.59;59.57;98860.88;5009894;28;19918;-72
2022/09/23 11:37:08;;;;;;;3.40;1.83;;;;;;;14.45;59.33;98860.13;5007573;28;20088;-73
2022/09/23 11:39:52;;;;;;;4.93;1.80;;;;;;;14.35;59.35;98860.34;5017807;28;20038;-72
2022/09/23 11:42:28;;;;;;;5.18;2.13;;;;;;;14.29;59.62;98856.88;5024835;28;20112;-72
2022/09/23 11:45:02;;;;;;;12.30;5.65;;;;;;;14.22;59.53;98856.50;5028722;28;20022;-73
2022/09/23 11:47:42;;;;;;;18.95;7.93;;;;;;;14.21;59.99;98857.63;5015249;28;20053;-72
2022/09/23 11:50:44;;;;;;;11.82;5.78;;;;;;;14.20;60.17;98854.06;5021508;28;20033;-72
2022/09/23 11:53:22;;;;;;;12.20;5.90;;;;;;;14.23;60.54;98853.44;5007845;28;20034;-71
2022/09/23 11:56:16;;;;;;;7.90;4.25;;;;;;;14.28;60.56;98852.50;5020108;28;20030;-73
2022/09/23 11:58:51;;;;;;;8.15;4.75;;;;;;;14.36;60.83;98851.75;5011631;28;20463;-74
2022/09/23 12:01:30;;;;;;;5.47;3.55;;;;;;;14.42;60.50;98846.94;5009729;28;20030;-74
2022/09/23 12:04:05;;;;;;;7.60;4.50;;;;;;;14.49;60.81;98849.25;5011366;28;20037;-74